createdAt,value
2018-05-10T00:00:32.816Z,42.87
2018-05-10T00:02:59.469Z,39.77
2018-05-10T00:05:26.271Z,36.40
2018-05-10T00:07:53.087Z,35.70
2018-05-10T00:10:20.136Z,35.00
2018-05-10T00:12:46.778Z,34.40
2018-05-10T00:15:13.529Z,35.47
2018-05-10T00:17:40.198Z,34.00
2018-05-10T00:20:07.544Z,37.20
2018-05-10T00:22:34.268Z,34.80
2018-05-10T00:25:00.912Z,34.43
2018-05-10T00:27:27.540Z,35.00
2018-05-10T00:29:54.220Z,35.10
2018-05-10T00:32:21.605Z,34.17
2018-05-10T00:34:48.245Z,36.03
2018-05-10T00:37:14.984Z,34.87
2018-05-10T00:39:41.635Z,36.43
2018-05-10T00:42:08.265Z,34.87
2018-05-10T00:44:35.010Z,35.97
2018-05-10T00:47:01.617Z,36.17
2018-05-10T00:49:28.975Z,36.70
2018-05-10T00:51:56.449Z,37.80
2018-05-10T00:54:41.340Z,37.23
2018-05-10T00:57:08.090Z,36.37
2018-05-10T00:59:34.728Z,35.83
2018-05-10T01:02:01.413Z,37.80
2018-05-10T01:04:28.799Z,41.37
2018-05-10T01:06:55.421Z,39.07
2018-05-10T01:09:22.068Z,35.53
2018-05-10T01:11:48.728Z,31.97
2018-05-10T01:14:15.370Z,36.27
2018-05-10T01:16:42.013Z,34.53
2018-05-10T01:19:08.662Z,33.53
2018-05-10T01:21:35.295Z,32.50
2018-05-10T01:24:01.916Z,32.60
2018-05-10T01:26:28.579Z,32.67
2018-05-10T01:28:55.247Z,33.63
2018-05-10T01:31:22.641Z,35.70
2018-05-10T01:33:49.285Z,35.17
2018-05-10T01:36:15.988Z,34.30
2018-05-10T01:38:43.550Z,32.90
2018-05-10T01:41:10.934Z,32.97
2018-05-10T01:43:37.579Z,31.23
2018-05-10T01:46:04.180Z,28.27
2018-05-10T01:48:31.544Z,33.07
2018-05-10T01:50:59.033Z,29.10
2018-05-10T01:53:25.844Z,28.77
2018-05-10T01:55:53.196Z,30.37
2018-05-10T01:58:20.565Z,28.40
2018-05-10T02:00:47.205Z,28.53
2018-05-10T02:03:13.893Z,28.80
2018-05-10T02:05:40.703Z,27.70
2018-05-10T02:08:07.313Z,27.53
2018-05-10T02:10:34.709Z,28.53
2018-05-10T02:13:01.468Z,28.07
2018-05-10T02:15:28.124Z,27.27
2018-05-10T02:17:54.894Z,28.33
2018-05-10T02:20:21.664Z,26.43
2018-05-10T02:22:48.312Z,27.77
2018-05-10T02:25:15.001Z,26.73
2018-05-10T02:27:42.516Z,27.20
2018-05-10T02:30:09.178Z,26.93
2018-05-10T02:32:35.943Z,25.90
2018-05-10T02:35:03.646Z,23.40
2018-05-10T02:37:30.316Z,21.97
2018-05-10T02:39:56.985Z,22.33
2018-05-10T02:42:24.344Z,21.47
2018-05-10T02:44:51.815Z,21.27
2018-05-10T02:47:18.630Z,20.17
2018-05-10T02:49:45.389Z,18.50
2018-05-10T02:52:12.763Z,17.80
2018-05-10T02:54:39.560Z,18.53
2018-05-10T02:57:06.188Z,18.43
2018-05-10T02:59:33.034Z,19.33
2018-05-10T03:01:59.668Z,18.73
2018-05-10T03:04:26.297Z,19.23
2018-05-10T03:06:52.948Z,17.53
2018-05-10T03:09:19.584Z,19.40
2018-05-10T03:11:46.252Z,20.37
2018-05-10T03:14:13.709Z,19.20
2018-05-10T03:16:41.281Z,21.20
2018-05-10T03:19:08.753Z,22.33
2018-05-10T03:21:35.391Z,20.37
2018-05-10T03:24:02.129Z,22.50
2018-05-10T03:26:29.158Z,23.43
2018-05-10T03:28:56.608Z,22.80
2018-05-10T03:31:23.298Z,19.47
2018-05-10T03:33:50.076Z,21.63
2018-05-10T03:36:16.739Z,21.80
2018-05-10T03:38:44.107Z,23.63
2018-05-10T03:41:10.723Z,22.30
2018-05-10T03:43:38.136Z,24.80
2018-05-10T03:46:05.539Z,27.00
2018-05-10T03:48:32.917Z,24.73
2018-05-10T03:50:59.739Z,24.07
2018-05-10T03:53:27.267Z,25.33
2018-05-10T03:55:53.888Z,28.33
2018-05-10T03:58:20.526Z,24.63
2018-05-10T04:00:47.267Z,24.83
2018-05-10T04:06:41.410Z,27.33
2018-05-10T04:09:27.322Z,25.57
2018-05-10T04:11:54.035Z,26.73
2018-05-10T04:14:20.712Z,25.20
2018-05-10T04:16:47.455Z,27.63
2018-05-10T04:19:14.120Z,24.00
2018-05-10T04:21:40.740Z,24.43
2018-05-10T04:24:08.010Z,26.30
2018-05-10T04:26:34.693Z,28.67
2018-05-10T04:29:02.214Z,27.93
2018-05-10T04:31:28.893Z,29.83
2018-05-10T04:33:56.239Z,30.10
2018-05-10T04:36:22.967Z,29.53
2018-05-10T04:38:49.783Z,28.43
2018-05-10T04:41:16.504Z,28.40
2018-05-10T04:43:43.148Z,24.87
2018-05-10T04:46:09.756Z,24.27
2018-05-10T04:48:37.149Z,24.33
2018-05-10T04:51:03.848Z,21.80
2018-05-10T04:53:31.384Z,23.33
2018-05-10T04:55:58.029Z,20.77
2018-05-10T04:58:24.702Z,21.07
2018-05-10T05:00:51.314Z,21.43
2018-05-10T05:03:18.885Z,21.20
2018-05-10T05:05:45.627Z,20.87
2018-05-10T05:08:12.996Z,17.87
2018-05-10T05:10:39.693Z,17.03
2018-05-10T05:13:07.078Z,18.67
2018-05-10T05:15:34.476Z,16.40
2018-05-10T05:18:01.265Z,17.43
2018-05-10T05:20:28.735Z,16.13
2018-05-10T05:22:56.232Z,16.33
2018-05-10T05:25:22.860Z,16.33
2018-05-10T05:27:50.321Z,16.30
2018-05-10T05:30:17.119Z,18.50
2018-05-10T05:32:44.621Z,16.70
2018-05-10T05:35:11.155Z,17.73
2018-05-10T05:37:37.831Z,16.13
2018-05-10T05:40:04.599Z,14.70
2018-05-10T05:42:32.122Z,16.63
2018-05-10T05:44:59.691Z,16.37
2018-05-10T05:47:26.334Z,15.47
2018-05-10T05:49:53.199Z,16.20
2018-05-10T05:52:20.553Z,16.20
2018-05-10T05:54:47.912Z,19.40
2018-05-10T05:57:15.307Z,17.83
2018-05-10T05:59:42.702Z,17.83
2018-05-10T06:02:09.390Z,15.83
2018-05-10T06:04:36.154Z,13.20
2018-05-10T06:07:03.720Z,14.00
2018-05-10T06:09:32.169Z,13.80
2018-05-10T06:12:09.417Z,13.37
2018-05-10T06:14:36.418Z,11.10
2018-05-10T06:17:03.211Z,12.17
2018-05-10T06:19:30.024Z,12.83
2018-05-10T06:21:57.869Z,12.57
2018-05-10T06:24:24.607Z,12.40
2018-05-10T06:26:51.392Z,13.10
2018-05-10T06:29:18.252Z,12.53
2018-05-10T06:31:45.217Z,11.43
2018-05-10T06:34:11.985Z,11.33
2018-05-10T06:36:38.678Z,10.20
2018-05-10T06:39:05.364Z,11.10
2018-05-10T06:41:32.313Z,10.00
2018-05-10T06:43:59.128Z,9.37
2018-05-10T06:46:25.972Z,8.83
2018-05-10T06:48:52.815Z,7.77
2018-05-10T06:51:20.541Z,7.23
2018-05-10T06:53:47.580Z,6.73
2018-05-10T06:56:14.553Z,6.47
2018-05-10T06:58:41.517Z,6.70
2018-05-10T07:01:08.228Z,7.50
2018-05-10T07:03:34.960Z,6.63
2018-05-10T07:06:01.893Z,6.20
2018-05-10T07:08:29.475Z,5.87
2018-05-10T07:10:56.321Z,6.47
2018-05-10T07:13:23.068Z,6.43
2018-05-10T07:15:49.863Z,6.40
2018-05-10T07:18:17.557Z,5.80
2018-05-10T07:20:44.200Z,6.27
2018-05-10T07:23:10.865Z,6.60
2018-05-10T07:25:37.670Z,6.90
2018-05-10T07:28:05.067Z,6.93
2018-05-10T07:30:31.853Z,7.40
2018-05-10T07:32:59.393Z,7.47
2018-05-10T07:35:26.093Z,7.63
2018-05-10T07:37:52.941Z,6.63
2018-05-10T07:40:19.890Z,7.40
2018-05-10T07:42:46.605Z,8.43
2018-05-10T07:45:13.957Z,8.83
2018-05-10T07:47:40.807Z,9.13
2018-05-10T07:50:08.364Z,8.00
2018-05-10T07:52:35.235Z,9.03
2018-05-10T07:55:03.503Z,9.23
2018-05-10T07:57:30.357Z,9.63
2018-05-10T07:59:57.165Z,10.37
2018-05-10T08:02:24.042Z,10.17
2018-05-10T08:07:24.540Z,9.37
2018-05-10T08:09:52.108Z,9.97
2018-05-10T08:12:19.869Z,10.70
2018-05-10T08:14:51.410Z,10.93
2018-05-10T08:17:19.021Z,11.27
2018-05-10T08:19:53.560Z,12.37
2018-05-10T08:22:20.389Z,11.90
2018-05-10T08:24:47.419Z,12.43
2018-05-10T08:27:15.677Z,12.60
2018-05-10T08:29:51.330Z,10.97
2018-05-10T08:32:19.114Z,9.27
2018-05-10T08:34:46.683Z,8.17
2018-05-10T08:37:13.592Z,7.70
2018-05-10T08:39:40.299Z,7.80
2018-05-10T08:42:07.097Z,8.63
2018-05-10T08:44:34.579Z,8.10
2018-05-10T08:47:02.241Z,6.20
2018-05-10T08:49:29.139Z,3.83
2018-05-10T08:51:56.674Z,3.83
2018-05-10T08:54:23.940Z,3.33
2018-05-10T08:56:51.240Z,4.00
2018-05-10T08:59:24.310Z,11.77
2018-05-10T09:01:51.063Z,7.67
2018-05-10T09:04:18.034Z,4.50
2018-05-10T09:06:44.922Z,4.37
2018-05-10T09:09:12.177Z,4.30
2018-05-10T09:11:38.976Z,4.40
2018-05-10T09:14:05.900Z,5.50
2018-05-10T09:16:33.472Z,5.60
2018-05-10T09:19:03.861Z,6.57
2018-05-10T09:21:32.111Z,6.03
2018-05-10T09:23:59.154Z,6.20
2018-05-10T09:26:27.840Z,6.57
2018-05-10T09:28:54.767Z,6.40
2018-05-10T09:31:21.413Z,6.73
2018-05-10T09:33:48.439Z,5.37
2018-05-10T09:36:23.492Z,6.43
2018-05-10T09:38:50.339Z,5.03
2018-05-10T09:41:17.340Z,3.83
2018-05-10T09:43:47.817Z,4.20
2018-05-10T09:46:14.917Z,3.33
2018-05-10T09:48:41.556Z,5.10
2018-05-10T09:51:08.492Z,2.80
2018-05-10T09:53:35.343Z,2.97
2018-05-10T09:56:02.061Z,2.93
2018-05-10T09:58:28.835Z,2.40
2018-05-10T10:00:56.328Z,2.57
2018-05-10T10:03:23.141Z,2.43
2018-05-10T10:05:49.832Z,2.00
2018-05-10T10:08:16.534Z,2.60
2018-05-10T10:10:43.345Z,3.10
2018-05-10T10:13:10.593Z,2.53
2018-05-10T10:15:37.320Z,3.00
2018-05-10T10:18:04.110Z,3.50
2018-05-10T10:20:30.971Z,3.93
2018-05-10T10:22:57.806Z,3.37
2018-05-10T10:25:24.636Z,4.23
2018-05-10T10:27:51.446Z,3.70
2018-05-10T10:30:18.120Z,4.23
2018-05-10T10:32:45.785Z,5.00
2018-05-10T10:35:13.758Z,5.37
2018-05-10T10:37:42.544Z,6.57
2018-05-10T10:40:11.615Z,6.50
2018-05-10T10:42:39.913Z,6.73
2018-05-10T10:47:40.258Z,7.00
2018-05-10T10:50:08.014Z,6.93
2018-05-10T10:52:35.097Z,7.93
2018-05-10T10:55:05.004Z,8.87
2018-05-10T10:57:40.551Z,9.63
2018-05-10T11:00:07.545Z,9.43
2018-05-10T11:02:35.110Z,9.37
2018-05-10T11:05:02.624Z,10.83
2018-05-10T11:07:29.379Z,10.70
2018-05-10T11:09:56.215Z,11.57
2018-05-10T11:12:22.955Z,12.50
2018-05-10T11:14:50.603Z,12.90
2018-05-10T11:17:18.234Z,12.93
2018-05-10T11:19:44.992Z,14.07
2018-05-10T11:22:14.204Z,15.03
2018-05-10T11:24:40.968Z,17.50
2018-05-10T11:27:08.084Z,18.53
2018-05-10T11:29:34.929Z,18.33
2018-05-10T11:32:01.705Z,18.43
2018-05-10T11:34:28.428Z,18.50
2018-05-10T11:36:55.255Z,19.43
2018-05-10T11:39:22.811Z,19.63
2018-05-10T11:41:50.956Z,19.53
2018-05-10T11:44:18.376Z,19.60
2018-05-10T11:46:45.134Z,19.57
2018-05-10T11:49:11.934Z,20.80
2018-05-10T11:51:39.469Z,19.60
2018-05-10T11:54:11.562Z,19.93
2018-05-10T11:56:39.926Z,19.77
2018-05-10T11:59:13.281Z,19.73
2018-05-10T12:01:42.317Z,20.80
2018-05-10T12:04:16.734Z,20.20
2018-05-10T12:06:45.530Z,20.10
2018-05-10T12:09:17.894Z,20.20
2018-05-10T12:11:45.392Z,19.90
2018-05-10T12:14:18.295Z,20.27
2018-05-10T12:16:46.399Z,18.57
2018-05-10T12:19:15.483Z,20.63
2018-05-10T12:21:42.640Z,20.33
2018-05-10T12:24:10.823Z,18.77
2018-05-10T12:26:40.034Z,19.83
2018-05-10T12:29:07.164Z,18.63
2018-05-10T12:31:34.836Z,18.53
2018-05-10T12:34:01.545Z,19.57
2018-05-10T12:36:28.474Z,19.90
2018-05-10T12:38:55.237Z,18.57
2018-05-10T12:41:21.969Z,18.33
2018-05-10T12:43:48.805Z,18.43
2018-05-10T12:46:15.698Z,19.30
2018-05-10T12:48:42.542Z,19.03
2018-05-10T12:51:09.425Z,18.17
2018-05-10T12:53:36.310Z,18.57
2018-05-10T12:56:03.036Z,19.83
2018-05-10T12:58:29.802Z,20.33
2018-05-10T13:00:56.602Z,19.70
2018-05-10T13:03:24.142Z,19.00
2018-05-10T13:05:50.998Z,19.00
2018-05-10T13:08:17.830Z,18.60
2018-05-10T13:10:44.538Z,17.83
2018-05-10T13:13:11.269Z,18.80
2018-05-10T13:15:37.965Z,18.27
2018-05-10T13:18:04.712Z,19.00
2018-05-10T13:20:31.392Z,18.77
2018-05-10T13:22:58.213Z,18.40
2018-05-10T13:25:25.027Z,19.57
2018-05-10T13:27:51.753Z,19.27
2018-05-10T13:30:19.237Z,19.53
2018-05-10T13:32:46.077Z,20.77
2018-05-10T13:35:12.901Z,18.83
2018-05-10T13:37:39.649Z,20.43
2018-05-10T13:40:06.458Z,21.17
2018-05-10T13:42:33.266Z,21.47
2018-05-10T13:44:59.936Z,21.10
2018-05-10T13:47:26.733Z,21.10
2018-05-10T13:49:56.840Z,23.00
2018-05-10T13:52:23.664Z,22.57
2018-05-10T13:54:50.620Z,20.70
2018-05-10T13:57:18.469Z,21.27
2018-05-10T13:59:48.283Z,22.47
2018-05-10T14:02:16.319Z,22.03
2018-05-10T14:04:43.371Z,21.33
2018-05-10T14:07:11.843Z,23.47
2018-05-10T14:12:48.912Z,21.40
2018-05-10T14:15:15.618Z,21.87
2018-05-10T14:17:42.381Z,20.90
2018-05-10T14:20:09.072Z,20.27
2018-05-10T14:22:36.487Z,22.00
2018-05-10T14:25:03.250Z,19.73
2018-05-10T14:27:30.788Z,18.17
2018-05-10T14:29:57.649Z,18.83
2018-05-10T14:32:24.308Z,18.47
2018-05-10T14:34:51.000Z,15.90
2018-05-10T14:37:17.629Z,15.23
2018-05-10T14:39:44.297Z,13.60
2018-05-10T14:42:11.024Z,13.53
2018-05-10T14:44:37.854Z,12.07
2018-05-10T14:47:04.492Z,12.17
2018-05-10T14:49:31.271Z,11.43
2018-05-10T14:51:58.160Z,10.47
2018-05-10T14:54:24.850Z,9.23
2018-05-10T14:56:51.647Z,8.10
2018-05-10T14:59:18.386Z,9.17
2018-05-10T15:01:45.042Z,8.17
2018-05-10T15:04:11.717Z,6.17
2018-05-10T15:06:38.405Z,6.87
2018-05-10T15:09:05.037Z,6.10
2018-05-10T15:11:31.714Z,5.10
2018-05-10T15:13:58.466Z,5.23
2018-05-10T15:16:25.357Z,5.37
2018-05-10T15:18:52.839Z,5.20
2018-05-10T15:21:19.472Z,5.33
2018-05-10T15:23:46.246Z,4.00
2018-05-10T15:26:13.593Z,4.17
2018-05-10T15:28:40.267Z,4.40
2018-05-10T15:31:06.922Z,4.63
2018-05-10T15:33:34.329Z,4.67
2018-05-10T15:36:01.219Z,4.17
2018-05-10T15:38:28.725Z,3.83
2018-05-10T15:40:56.147Z,4.57
2018-05-10T15:43:22.870Z,4.03
2018-05-10T15:45:50.476Z,3.53
2018-05-10T15:48:17.164Z,3.67
2018-05-10T15:50:44.152Z,3.50
2018-05-10T15:53:10.809Z,3.80
2018-05-10T15:55:37.501Z,3.33
2018-05-10T15:58:04.940Z,3.37
2018-05-10T16:00:31.612Z,3.40
2018-05-10T16:02:58.304Z,3.07
2018-05-10T16:05:25.039Z,3.70
2018-05-10T16:07:51.784Z,3.40
2018-05-10T16:10:18.429Z,3.47
2018-05-10T16:12:45.112Z,3.40
2018-05-10T16:15:11.817Z,3.10
2018-05-10T16:17:38.530Z,3.30
2018-05-10T16:20:05.262Z,3.27
2018-05-10T16:22:32.169Z,3.30
2018-05-10T16:24:59.540Z,3.10
2018-05-10T16:27:26.232Z,3.70
2018-05-10T16:29:52.884Z,3.67
2018-05-10T16:32:19.667Z,3.07
2018-05-10T16:37:09.893Z,3.43
2018-05-10T16:39:36.732Z,3.63
2018-05-10T16:42:03.387Z,4.00
2018-05-10T16:44:30.902Z,4.13
2018-05-10T16:46:57.576Z,3.80
2018-05-10T16:49:24.273Z,3.30
2018-05-10T16:51:50.920Z,3.27
2018-05-10T16:54:17.584Z,3.23
2018-05-10T16:56:44.297Z,3.10
2018-05-10T16:59:10.939Z,3.47
2018-05-10T17:01:37.669Z,3.30
2018-05-10T17:04:05.188Z,3.83
2018-05-10T17:06:32.086Z,2.87
2018-05-10T17:08:58.764Z,2.60
2018-05-10T17:11:25.494Z,2.80
2018-05-10T17:13:52.129Z,2.87
2018-05-10T17:16:18.816Z,3.03
2018-05-10T17:18:46.412Z,2.60
2018-05-10T17:21:13.274Z,2.70
2018-05-10T17:23:40.016Z,2.67
2018-05-10T17:26:06.924Z,2.47
2018-05-10T17:28:33.551Z,2.77
2018-05-10T17:31:00.977Z,2.40
2018-05-10T17:33:27.779Z,2.73
2018-05-10T17:35:54.430Z,2.60
2018-05-10T17:38:21.151Z,2.30
2018-05-10T17:40:47.794Z,3.00
2018-05-10T17:43:14.634Z,2.27
2018-05-10T17:45:41.514Z,2.00
2018-05-10T17:48:08.388Z,2.50
2018-05-10T17:50:35.046Z,2.50
2018-05-10T17:53:01.688Z,2.30
2018-05-10T17:55:28.376Z,2.90
2018-05-10T17:57:55.015Z,3.03
2018-05-10T18:00:21.677Z,3.67
2018-05-10T18:02:48.775Z,3.77
2018-05-10T18:05:15.465Z,4.13
2018-05-10T18:07:42.140Z,3.90
2018-05-10T18:10:09.119Z,3.77
2018-05-10T18:12:36.146Z,3.47
2018-05-10T18:15:02.806Z,3.17
2018-05-10T18:17:29.465Z,3.50
2018-05-10T18:19:57.701Z,3.53
2018-05-10T18:22:24.391Z,3.40
2018-05-10T18:24:51.178Z,2.97
2018-05-10T18:27:18.105Z,3.30
2018-05-10T18:29:44.780Z,4.50
2018-05-10T18:32:11.519Z,7.10
2018-05-10T18:34:38.335Z,4.47
2018-05-10T18:37:05.110Z,6.53
2018-05-10T18:39:31.868Z,5.53
2018-05-10T18:41:58.559Z,6.07
2018-05-10T18:44:25.224Z,4.80
2018-05-10T18:46:52.010Z,4.50
2018-05-10T18:49:18.723Z,3.30
2018-05-10T18:51:45.423Z,3.73
2018-05-10T18:54:12.176Z,10.83
2018-05-10T18:56:38.865Z,3.30
2018-05-10T18:59:05.596Z,3.27
2018-05-10T19:01:32.315Z,3.37
2018-05-10T19:03:59.021Z,3.37
2018-05-10T19:06:25.682Z,3.20
2018-05-10T19:08:52.363Z,3.50
2018-05-10T19:11:19.061Z,3.37
2018-05-10T19:13:45.926Z,3.13
2018-05-10T19:16:12.606Z,3.97
2018-05-10T19:18:40.045Z,5.50
2018-05-10T19:21:06.746Z,5.00
2018-05-10T19:23:33.572Z,5.77
2018-05-10T19:26:00.321Z,4.63
2018-05-10T19:28:27.122Z,4.50
2018-05-10T19:30:54.636Z,3.97
2018-05-10T19:33:21.341Z,4.07
2018-05-10T19:35:48.015Z,4.27
2018-05-10T19:38:14.679Z,3.17
2018-05-10T19:40:41.361Z,2.77
2018-05-10T19:43:08.072Z,2.53
2018-05-10T19:45:35.506Z,2.83
2018-05-10T19:48:02.174Z,3.00
2018-05-10T19:50:29.576Z,2.83
2018-05-10T19:52:56.264Z,2.97
2018-05-10T19:55:23.693Z,3.57
2018-05-10T19:57:50.370Z,2.90
2018-05-10T20:00:17.791Z,2.87
2018-05-10T20:02:44.492Z,2.97
2018-05-10T20:05:11.199Z,3.30
2018-05-10T20:07:38.854Z,2.83
2018-05-10T20:10:06.266Z,3.57
2018-05-10T20:12:33.000Z,3.70
2018-05-10T20:14:59.673Z,3.10
2018-05-10T20:17:26.380Z,3.40
2018-05-10T20:19:53.118Z,3.70
2018-05-10T20:22:19.817Z,3.47
2018-05-10T20:24:47.203Z,3.20
2018-05-10T20:27:14.007Z,3.00
2018-05-10T20:29:40.888Z,3.57
2018-05-10T20:32:07.586Z,3.50
2018-05-10T20:34:34.278Z,3.83
2018-05-10T20:37:01.042Z,3.40
2018-05-10T20:39:27.729Z,4.00
2018-05-10T20:41:55.201Z,4.40
2018-05-10T20:44:21.893Z,4.30
2018-05-10T20:46:48.721Z,3.93
2018-05-10T20:49:15.349Z,3.73
2018-05-10T20:51:42.086Z,3.27
2018-05-10T20:54:09.071Z,3.23
2018-05-10T20:56:37.262Z,4.03
2018-05-10T20:59:04.888Z,3.87
2018-05-10T21:01:31.787Z,3.60
2018-05-10T21:03:58.760Z,4.00
2018-05-10T21:06:28.031Z,4.33
2018-05-10T21:08:56.022Z,3.73
2018-05-10T21:11:24.060Z,4.00
2018-05-10T21:13:51.009Z,3.57
2018-05-10T21:16:17.846Z,3.87
2018-05-10T21:18:44.666Z,3.80
2018-05-10T21:21:11.545Z,3.77
2018-05-10T21:23:38.500Z,3.20
2018-05-10T21:26:05.562Z,4.10
2018-05-10T21:28:32.566Z,4.00
2018-05-10T21:30:59.664Z,4.10
2018-05-10T21:33:26.683Z,3.93
2018-05-10T21:35:53.636Z,4.47
2018-05-10T21:38:20.434Z,4.53
2018-05-10T21:40:47.303Z,4.50
2018-05-10T21:43:14.164Z,4.40
2018-05-10T21:45:41.061Z,5.03
2018-05-10T21:48:07.886Z,5.00
2018-05-10T21:50:34.593Z,4.87
2018-05-10T21:53:01.248Z,5.20
2018-05-10T21:55:28.719Z,4.90
2018-05-10T21:57:55.428Z,5.70
2018-05-10T22:00:22.048Z,5.17
2018-05-10T22:02:48.821Z,4.97
2018-05-10T22:05:15.465Z,5.60
2018-05-10T22:07:42.117Z,6.10
2018-05-10T22:10:08.812Z,5.77
2018-05-10T22:12:35.507Z,6.03
2018-05-10T22:15:02.174Z,5.67
2018-05-10T22:17:28.922Z,5.30
2018-05-10T22:19:56.411Z,5.33
2018-05-10T22:22:23.064Z,6.10
2018-05-10T22:24:49.712Z,6.13
2018-05-10T22:27:16.419Z,6.00
2018-05-10T22:29:43.080Z,6.03
2018-05-10T22:32:09.905Z,6.47
2018-05-10T22:34:36.527Z,6.63
2018-05-10T22:37:03.873Z,6.80
2018-05-10T22:39:31.301Z,7.30
2018-05-10T22:41:57.925Z,6.43
2018-05-10T22:44:24.811Z,5.63
2018-05-10T22:46:51.417Z,6.67
2018-05-10T22:49:18.193Z,6.87
2018-05-10T22:51:45.600Z,6.20
2018-05-10T22:54:12.219Z,7.03
2018-05-10T22:56:38.862Z,7.20
2018-05-10T22:59:05.559Z,6.93
2018-05-10T23:01:32.981Z,6.93
2018-05-10T23:03:59.644Z,7.60
2018-05-10T23:06:27.061Z,6.23
2018-05-10T23:08:53.706Z,6.97
2018-05-10T23:11:20.369Z,7.67
2018-05-10T23:13:47.001Z,7.87
2018-05-10T23:16:13.769Z,7.27
2018-05-10T23:18:41.192Z,6.30
2018-05-10T23:21:07.814Z,7.30
2018-05-10T23:23:34.528Z,7.13
2018-05-10T23:26:01.184Z,7.00
2018-05-10T23:28:27.842Z,7.23
2018-05-10T23:30:54.454Z,6.73
2018-05-10T23:33:21.137Z,6.67
2018-05-10T23:35:47.763Z,8.00
2018-05-10T23:38:14.477Z,7.63
2018-05-10T23:40:41.168Z,7.27
2018-05-10T23:43:08.597Z,7.90
2018-05-10T23:45:35.316Z,7.53
2018-05-10T23:48:01.938Z,7.73
2018-05-10T23:50:28.793Z,7.00
2018-05-10T23:52:55.589Z,7.57
2018-05-10T23:55:23.154Z,7.67
2018-05-10T23:57:49.771Z,6.77
